createdAt,value
2024-02-10T00:01:40.645Z,83.97
2024-02-10T00:04:08.041Z,83.82
2024-02-10T00:06:37.959Z,83.91
2024-02-10T00:09:07.892Z,84.24
2024-02-10T00:11:35.531Z,83.52
2024-02-10T00:14:02.369Z,84.00
2024-02-10T00:16:30.150Z,83.89
2024-02-10T00:18:58.821Z,83.60
2024-02-10T00:21:25.753Z,83.66
2024-02-10T00:23:52.385Z,84.35
2024-02-10T00:26:22.505Z,83.83
2024-02-10T00:28:50.176Z,84.49
2024-02-10T00:31:16.959Z,84.18
2024-02-10T00:33:47.744Z,83.93
2024-02-10T00:36:14.643Z,84.41
2024-02-10T00:38:41.750Z,84.51
2024-02-10T00:41:11.047Z,84.34
2024-02-10T00:43:43.565Z,83.96
2024-02-10T00:46:11.959Z,83.71
2024-02-10T00:48:39.242Z,84.02
2024-02-10T00:51:07.102Z,83.71
2024-02-10T00:53:37.532Z,84.08
2024-02-10T00:56:04.417Z,84.52
2024-02-10T00:58:32.422Z,83.91
2024-02-10T01:00:59.048Z,84.56
2024-02-10T01:03:25.781Z,84.47
2024-02-10T01:05:52.580Z,84.38
2024-02-10T01:08:19.238Z,83.89
2024-02-10T01:10:45.896Z,84.09
2024-02-10T01:13:12.717Z,83.94
2024-02-10T01:15:44.193Z,84.09
2024-02-10T01:18:14.018Z,84.07
2024-02-10T01:20:40.785Z,84.17
2024-02-10T01:23:09.503Z,84.38
2024-02-10T01:25:37.537Z,84.11
2024-02-10T01:28:04.443Z,84.41
2024-02-10T01:30:31.146Z,84.13
2024-02-10T01:32:59.864Z,83.99
2024-02-10T01:35:28.415Z,83.61
2024-02-10T01:37:57.085Z,84.12
2024-02-10T01:40:23.824Z,83.98
2024-02-10T01:42:51.006Z,83.88
2024-02-10T01:45:19.324Z,84.54
2024-02-10T01:47:47.326Z,83.78
2024-02-10T01:50:16.104Z,84.07
2024-02-10T01:52:44.619Z,84.26
2024-02-10T01:55:12.120Z,84.25
2024-02-10T01:57:39.649Z,83.95
2024-02-10T02:00:07.938Z,84.25
2024-02-10T02:02:35.154Z,84.12
2024-02-10T02:05:03.904Z,84.49
2024-02-10T02:07:31.894Z,84.53
2024-02-10T02:10:02.177Z,84.14
2024-02-10T02:12:30.059Z,84.27
2024-02-10T02:14:58.934Z,83.91
2024-02-10T02:17:26.262Z,84.36
2024-02-10T02:19:53.585Z,84.37
2024-02-10T02:22:22.039Z,83.94
2024-02-10T02:24:49.156Z,84.38
2024-02-10T02:27:16.300Z,83.67
2024-02-10T02:29:43.420Z,83.81
2024-02-10T02:32:12.037Z,84.01
2024-02-10T02:34:39.664Z,84.00
2024-02-10T02:37:08.325Z,84.09
2024-02-10T02:39:37.331Z,83.96
2024-02-10T02:42:07.165Z,84.57
2024-02-10T02:44:34.329Z,83.82
2024-02-10T02:47:05.868Z,84.02
2024-02-10T02:49:34.966Z,84.13
2024-02-10T02:52:02.094Z,84.14
2024-02-10T02:54:35.911Z,83.63
2024-02-10T02:57:02.507Z,83.96
2024-02-10T02:59:29.200Z,83.80
2024-02-10T03:01:56.311Z,84.38
2024-02-10T03:04:23.784Z,84.50
2024-02-10T03:06:52.066Z,84.45
2024-02-10T03:09:19.626Z,84.23
2024-02-10T03:11:46.387Z,84.87
2024-02-10T03:14:16.371Z,83.94
2024-02-10T03:16:46.867Z,84.03
2024-02-10T03:19:13.697Z,84.03
2024-02-10T03:21:40.419Z,83.82
2024-02-10T03:24:07.338Z,83.78
2024-02-10T03:29:07.334Z,83.98
2024-02-10T03:31:34.482Z,83.96
2024-02-10T03:34:02.902Z,83.97
2024-02-10T03:36:32.579Z,83.52
2024-02-10T03:39:04.981Z,83.48
2024-02-10T03:41:31.741Z,83.88
2024-02-10T03:43:58.350Z,83.86
2024-02-10T03:46:25.227Z,83.78
2024-02-10T03:48:54.071Z,83.73
2024-02-10T03:51:20.879Z,84.02
2024-02-10T03:53:47.541Z,83.33
2024-02-10T03:56:14.135Z,83.45
2024-02-10T03:58:42.825Z,83.74
2024-02-10T04:01:17.404Z,83.86
2024-02-10T04:03:47.209Z,84.40
2024-02-10T04:06:17.184Z,84.10
2024-02-10T04:08:48.441Z,84.44
2024-02-10T04:11:18.924Z,84.27
2024-02-10T04:13:48.987Z,84.93
2024-02-10T04:16:16.960Z,83.99
2024-02-10T04:18:44.249Z,83.79
2024-02-10T04:21:11.344Z,84.15
2024-02-10T04:23:41.674Z,84.02
2024-02-10T04:26:08.731Z,83.83
2024-02-10T04:28:35.741Z,83.74
2024-02-10T04:31:03.175Z,83.53
2024-02-10T04:33:32.400Z,83.88
2024-02-10T04:35:59.189Z,83.74
2024-02-10T04:38:26.022Z,83.71
2024-02-10T04:40:53.158Z,83.38
2024-02-10T04:43:21.158Z,83.43
2024-02-10T04:45:50.446Z,83.11
2024-02-10T04:48:21.472Z,83.37
2024-02-10T04:50:48.824Z,82.71
2024-02-10T04:53:17.221Z,83.31
2024-02-10T04:55:45.960Z,83.67
2024-02-10T04:58:14.478Z,83.25
2024-02-10T05:00:42.200Z,83.26
2024-02-10T05:03:09.055Z,83.49
2024-02-10T05:05:35.859Z,83.56
2024-02-10T05:08:02.610Z,83.50
2024-02-10T05:10:29.407Z,83.45
2024-02-10T05:12:57.588Z,83.45
2024-02-10T05:15:26.018Z,83.56
2024-02-10T05:17:55.324Z,83.50
2024-02-10T05:23:00.207Z,83.28
2024-02-10T05:25:36.711Z,83.53
2024-02-10T05:28:04.140Z,82.95
2024-02-10T05:33:03.032Z,82.83
2024-02-10T05:35:31.509Z,82.80
2024-02-10T05:38:00.918Z,83.25
2024-02-10T05:40:29.151Z,83.90
2024-02-10T05:43:00.848Z,82.90
2024-02-10T05:45:29.294Z,83.52
2024-02-10T05:47:56.057Z,83.87
2024-02-10T05:50:24.981Z,83.38
2024-02-10T05:52:53.752Z,83.57
2024-02-10T05:55:27.201Z,83.15
2024-02-10T05:57:57.210Z,83.28
2024-02-10T06:00:24.466Z,82.56
2024-02-10T06:02:52.546Z,82.48
2024-02-10T06:05:19.864Z,83.20
2024-02-10T06:07:49.742Z,83.19
2024-02-10T06:10:17.674Z,83.30
2024-02-10T06:12:50.270Z,83.46
2024-02-10T06:15:19.051Z,83.19
2024-02-10T06:17:54.085Z,83.13
2024-02-10T06:20:24.581Z,83.27
2024-02-10T06:22:54.282Z,82.91
2024-02-10T06:25:30.223Z,83.60
2024-02-10T06:28:00.236Z,82.90
2024-02-10T06:30:32.073Z,82.93
2024-02-10T06:32:59.621Z,83.26
2024-02-10T06:35:27.789Z,83.40
2024-02-10T06:37:56.352Z,83.10
2024-02-10T06:40:24.111Z,82.52
2024-02-10T06:42:51.829Z,83.29
2024-02-10T06:45:23.458Z,82.51
2024-02-10T06:47:51.555Z,83.38
2024-02-10T06:50:25.928Z,82.36
2024-02-10T06:52:54.513Z,83.46
2024-02-10T06:55:21.625Z,83.52
2024-02-10T06:57:54.016Z,82.59
2024-02-10T07:00:21.145Z,82.95
2024-02-10T07:02:49.516Z,82.95
2024-02-10T07:05:18.152Z,82.57
2024-02-10T07:07:48.194Z,82.79
2024-02-10T07:10:20.458Z,82.95
2024-02-10T07:12:49.195Z,82.76
2024-02-10T07:15:20.940Z,82.01
2024-02-10T07:17:51.647Z,81.89
2024-02-10T07:23:01.482Z,82.91
2024-02-10T07:25:30.475Z,83.20
2024-02-10T07:28:03.205Z,82.35
2024-02-10T07:30:32.962Z,82.10
2024-02-10T07:33:17.968Z,82.42
2024-02-10T07:35:50.752Z,82.55
2024-02-10T07:38:22.185Z,83.01
2024-02-10T07:40:49.099Z,82.86
2024-02-10T07:43:17.320Z,82.71
2024-02-10T07:45:45.819Z,82.58
2024-02-10T07:48:12.695Z,83.06
2024-02-10T07:50:42.315Z,82.58
2024-02-10T07:53:15.340Z,82.95
2024-02-10T07:55:44.298Z,82.96
2024-02-10T07:58:16.707Z,82.73
2024-02-10T08:00:44.042Z,82.43
2024-02-10T08:03:13.320Z,82.20
2024-02-10T08:05:43.664Z,82.05
2024-02-10T08:08:12.139Z,83.46
2024-02-10T08:10:40.436Z,83.61
2024-02-10T08:13:10.023Z,82.37
2024-02-10T08:15:37.042Z,82.38
2024-02-10T08:18:06.607Z,82.66
2024-02-10T08:20:33.670Z,82.50
2024-02-10T08:23:00.449Z,82.99
2024-02-10T08:25:29.596Z,82.62
2024-02-10T08:27:58.080Z,82.79
2024-02-10T08:30:25.792Z,82.72
2024-02-10T08:32:57.006Z,81.43
2024-02-10T08:35:26.042Z,82.00
2024-02-10T08:37:52.634Z,81.38
2024-02-10T08:40:19.402Z,81.48
2024-02-10T08:42:48.004Z,81.06
2024-02-10T08:45:16.512Z,81.20
2024-02-10T08:47:47.045Z,81.40
2024-02-10T08:50:13.974Z,80.51
2024-02-10T08:52:41.142Z,80.81
2024-02-10T08:55:08.652Z,80.58
2024-02-10T08:57:37.736Z,80.79
2024-02-10T09:00:06.830Z,80.92
2024-02-10T09:02:33.705Z,80.44
2024-02-10T09:05:00.788Z,80.67
2024-02-10T09:07:27.504Z,80.44
2024-02-10T09:09:54.260Z,81.05
2024-02-10T09:12:20.949Z,81.52
2024-02-10T09:14:48.609Z,81.28
2024-02-10T09:17:15.331Z,81.75
2024-02-10T09:19:43.149Z,81.63
2024-02-10T09:22:12.038Z,81.79
2024-02-10T09:24:41.309Z,81.93
2024-02-10T09:27:11.425Z,81.59
2024-02-10T09:29:38.974Z,81.17
2024-02-10T09:32:05.989Z,81.32
2024-02-10T09:34:32.823Z,81.65
2024-02-10T09:37:00.697Z,81.93
2024-02-10T09:39:27.725Z,81.59
2024-02-10T09:42:02.904Z,81.59
2024-02-10T09:44:31.093Z,82.30
2024-02-10T09:47:01.860Z,81.73
2024-02-10T09:49:31.100Z,81.99
2024-02-10T09:52:00.231Z,81.75
2024-02-10T09:54:27.290Z,82.08
2024-02-10T09:56:54.698Z,81.89
2024-02-10T09:59:26.140Z,82.05
2024-02-10T10:01:56.298Z,81.44
2024-02-10T10:04:23.528Z,82.28
2024-02-10T10:06:51.069Z,81.90
2024-02-10T10:09:20.295Z,81.43
2024-02-10T10:11:51.134Z,81.79
2024-02-10T10:14:18.682Z,81.99
2024-02-10T10:17:03.902Z,81.76
2024-02-10T10:19:31.354Z,81.82
2024-02-10T10:21:59.072Z,81.49
2024-02-10T10:24:27.155Z,81.07
2024-02-10T10:26:55.488Z,81.19
2024-02-10T10:29:23.291Z,81.33
2024-02-10T10:31:51.639Z,81.22
2024-02-10T10:34:21.101Z,81.65
2024-02-10T10:36:50.625Z,81.26
2024-02-10T10:39:19.069Z,81.31
2024-02-10T10:41:46.883Z,81.37
2024-02-10T10:44:16.041Z,81.39
2024-02-10T10:46:43.826Z,81.26
2024-02-10T10:49:13.416Z,80.81
2024-02-10T10:51:53.213Z,81.24
2024-02-10T10:54:20.747Z,81.17
2024-02-10T10:56:49.534Z,81.31
2024-02-10T10:59:18.250Z,81.21
2024-02-10T11:01:47.090Z,81.27
2024-02-10T11:04:15.801Z,81.99
2024-02-10T11:06:45.719Z,81.21
2024-02-10T11:09:21.857Z,81.27
2024-02-10T11:11:48.553Z,81.03
2024-02-10T11:14:15.331Z,81.44
2024-02-10T11:16:43.867Z,81.45
2024-02-10T11:19:16.821Z,81.75
2024-02-10T11:21:44.590Z,81.80
2024-02-10T11:24:17.904Z,81.65
2024-02-10T11:26:45.986Z,81.51
2024-02-10T11:29:20.196Z,81.80
2024-02-10T11:31:47.475Z,80.88
2024-02-10T11:34:18.293Z,81.72
2024-02-10T11:36:57.203Z,81.03
2024-02-10T11:39:26.253Z,81.71
2024-02-10T11:41:57.578Z,81.61
2024-02-10T11:44:27.648Z,81.65
2024-02-10T11:46:54.994Z,80.84
2024-02-10T11:49:23.453Z,81.48
2024-02-10T11:51:54.481Z,81.13
2024-02-10T11:54:21.235Z,80.62
2024-02-10T11:56:51.497Z,80.95
2024-02-10T11:59:18.495Z,80.94
2024-02-10T12:01:45.413Z,81.73
2024-02-10T12:04:18.852Z,81.34
2024-02-10T12:06:47.602Z,81.73
2024-02-10T12:09:14.237Z,81.10
2024-02-10T12:11:44.126Z,81.42
2024-02-10T12:14:15.797Z,81.13
2024-02-10T12:16:46.577Z,81.38
2024-02-10T12:19:15.004Z,81.35
2024-02-10T12:21:43.084Z,81.60
2024-02-10T12:24:12.574Z,81.06
2024-02-10T12:26:39.157Z,81.27
2024-02-10T12:29:12.959Z,81.35
2024-02-10T12:31:41.476Z,81.77
2024-02-10T12:34:15.773Z,81.58
2024-02-10T12:36:42.777Z,82.00
2024-02-10T12:39:11.672Z,81.75
2024-02-10T12:41:39.322Z,82.12
2024-02-10T12:44:07.031Z,81.45
2024-02-10T12:46:33.825Z,81.93
2024-02-10T12:49:01.819Z,81.59
2024-02-10T12:51:33.405Z,81.33
2024-02-10T12:54:00.887Z,81.55
2024-02-10T12:56:28.445Z,81.97
2024-02-10T12:58:58.154Z,81.23
2024-02-10T13:01:25.764Z,81.35
2024-02-10T13:03:52.907Z,81.84
2024-02-10T13:06:20.197Z,81.88
2024-02-10T13:08:47.256Z,81.97
2024-02-10T13:11:14.154Z,81.49
2024-02-10T13:13:46.007Z,81.43
2024-02-10T13:16:12.854Z,81.96
2024-02-10T13:18:45.640Z,82.07
2024-02-10T13:21:18.029Z,81.79
2024-02-10T13:23:45.427Z,81.91
2024-02-10T13:26:13.407Z,81.27
2024-02-10T13:28:43.100Z,81.62
2024-02-10T13:31:10.951Z,81.37
2024-02-10T13:33:41.280Z,81.81
2024-02-10T13:36:09.840Z,81.39
2024-02-10T13:38:56.849Z,80.86
2024-02-10T13:41:43.400Z,80.32
2024-02-10T13:44:29.945Z,81.50
2024-02-10T13:47:16.528Z,81.05
2024-02-10T13:50:05.103Z,80.95
2024-02-10T13:52:53.885Z,81.06
2024-02-10T13:55:40.442Z,80.51
2024-02-10T14:00:47.357Z,81.12
2024-02-10T14:03:15.035Z,81.06
2024-02-10T14:05:56.498Z,81.35
2024-02-10T14:08:42.536Z,81.75
2024-02-10T14:11:14.496Z,81.03
2024-02-10T14:13:46.920Z,80.93
2024-02-10T14:16:17.061Z,80.93
2024-02-10T14:18:45.145Z,80.72
2024-02-10T14:21:18.913Z,81.28
2024-02-10T14:23:46.952Z,81.05
2024-02-10T14:26:16.613Z,81.52
2024-02-10T14:28:55.215Z,81.74
2024-02-10T14:31:24.062Z,80.99
2024-02-10T14:33:54.602Z,80.74
2024-02-10T14:36:41.893Z,81.31
2024-02-10T14:39:14.943Z,81.50
2024-02-10T14:41:44.594Z,80.79
2024-02-10T14:44:12.001Z,81.06
2024-02-10T14:46:41.296Z,81.15
2024-02-10T14:49:08.155Z,80.90
2024-02-10T14:51:34.926Z,80.73
2024-02-10T14:54:01.608Z,81.41
2024-02-10T14:56:32.415Z,80.63
2024-02-10T14:59:00.507Z,81.24
2024-02-10T15:01:32.205Z,80.44
2024-02-10T15:03:59.130Z,80.37
2024-02-10T15:06:25.989Z,80.58
2024-02-10T15:08:55.398Z,81.06
2024-02-10T15:11:23.822Z,81.40
2024-02-10T15:13:50.579Z,81.34
2024-02-10T15:16:21.257Z,81.35
2024-02-10T15:18:52.389Z,81.22
2024-02-10T15:21:20.863Z,81.24
2024-02-10T15:23:49.610Z,80.46
2024-02-10T15:26:18.494Z,81.19
2024-02-10T15:28:49.218Z,80.70
2024-02-10T15:31:20.574Z,80.55
2024-02-10T15:33:48.273Z,80.69
2024-02-10T15:36:35.003Z,80.29
2024-02-10T15:39:02.492Z,81.08
2024-02-10T15:41:33.981Z,81.16
2024-02-10T15:44:08.583Z,80.64
2024-02-10T15:46:37.204Z,81.16
2024-02-10T15:49:04.342Z,80.41
2024-02-10T15:51:34.361Z,80.84
2024-02-10T15:54:01.070Z,80.80
2024-02-10T15:56:27.704Z,81.49
2024-02-10T15:58:55.723Z,80.83
2024-02-10T16:01:23.618Z,81.30
2024-02-10T16:03:50.798Z,80.59
2024-02-10T16:06:17.763Z,80.61
2024-02-10T16:08:46.330Z,81.19
2024-02-10T16:11:15.718Z,81.04
2024-02-10T16:13:45.826Z,80.97
2024-02-10T16:16:17.979Z,81.14
2024-02-10T16:18:47.766Z,80.79
2024-02-10T16:21:29.237Z,81.12
2024-02-10T16:23:57.840Z,81.06
2024-02-10T16:26:24.873Z,81.07
2024-02-10T16:28:52.908Z,80.56
2024-02-10T16:31:22.172Z,81.28
2024-02-10T16:33:50.737Z,81.49
2024-02-10T16:36:17.510Z,81.04
2024-02-10T16:38:44.263Z,81.21
2024-02-10T16:41:14.118Z,80.88
2024-02-10T16:43:42.353Z,81.65
2024-02-10T16:46:09.060Z,81.16
2024-02-10T16:48:37.211Z,81.70
2024-02-10T16:51:04.848Z,80.94
2024-02-10T16:53:31.565Z,81.42
2024-02-10T16:56:02.214Z,81.18
2024-02-10T16:58:30.877Z,80.93
2024-02-10T17:00:59.019Z,81.79
2024-02-10T17:03:27.965Z,81.60
2024-02-10T17:05:59.237Z,80.93
2024-02-10T17:08:29.900Z,81.49
2024-02-10T17:10:57.105Z,80.89
2024-02-10T17:13:32.041Z,81.07
2024-02-10T17:15:58.758Z,80.89
2024-02-10T17:18:25.589Z,81.54
2024-02-10T17:20:58.427Z,81.48
2024-02-10T17:23:25.870Z,81.46
2024-02-10T17:25:55.991Z,81.04
2024-02-10T17:28:31.669Z,81.68
2024-02-10T17:30:58.650Z,81.55
2024-02-10T17:33:25.609Z,81.63
2024-02-10T17:35:54.205Z,81.12
2024-02-10T17:38:22.430Z,81.34
2024-02-10T17:40:49.610Z,81.34
2024-02-10T17:43:22.362Z,81.27
2024-02-10T17:45:52.276Z,81.57
2024-02-10T17:48:22.482Z,81.68
2024-02-10T17:50:51.045Z,81.35
2024-02-10T17:53:23.968Z,81.45
2024-02-10T17:55:55.556Z,81.90
2024-02-10T17:58:24.179Z,81.34
2024-02-10T18:00:52.900Z,81.82
2024-02-10T18:03:22.009Z,81.71
2024-02-10T18:05:50.383Z,81.96
2024-02-10T18:08:20.194Z,81.57
2024-02-10T18:10:48.521Z,81.49
2024-02-10T18:13:18.082Z,81.73
2024-02-10T18:15:45.157Z,81.95
2024-02-10T18:18:12.409Z,81.90
2024-02-10T18:20:39.613Z,81.64
2024-02-10T18:23:08.116Z,82.05
2024-02-10T18:25:36.426Z,81.73
2024-02-10T18:28:05.296Z,81.74
2024-02-10T18:30:32.092Z,81.89
2024-02-10T18:32:59.268Z,82.27
2024-02-10T18:35:27.565Z,81.59
2024-02-10T18:37:58.433Z,82.00
2024-02-10T18:40:28.053Z,81.62
2024-02-10T18:42:56.105Z,81.78
2024-02-10T18:45:25.185Z,82.04
2024-02-10T18:47:52.710Z,81.44
2024-02-10T18:50:20.209Z,81.38
2024-02-10T18:52:48.005Z,81.94
2024-02-10T18:55:16.017Z,81.77
2024-02-10T18:57:43.372Z,81.79
2024-02-10T19:00:14.793Z,82.34
2024-02-10T19:02:42.052Z,82.05
2024-02-10T19:05:09.282Z,81.68
2024-02-10T19:07:38.192Z,81.63
2024-02-10T19:10:11.854Z,81.55
2024-02-10T19:12:40.060Z,81.97
2024-02-10T19:15:10.161Z,82.49
2024-02-10T19:17:39.755Z,82.02
2024-02-10T19:20:12.312Z,82.06
2024-02-10T19:22:40.209Z,81.54
2024-02-10T19:25:10.457Z,82.05
2024-02-10T19:27:39.868Z,82.05
2024-02-10T19:30:09.991Z,81.86
2024-02-10T19:32:41.546Z,82.19
2024-02-10T19:35:17.592Z,82.11
2024-02-10T19:37:47.054Z,81.95
2024-02-10T19:40:16.092Z,82.27
2024-02-10T19:42:44.324Z,82.43
2024-02-10T19:45:14.153Z,81.98
2024-02-10T19:47:42.886Z,82.23
2024-02-10T19:50:13.173Z,82.15
2024-02-10T19:52:42.577Z,82.21
2024-02-10T19:55:11.126Z,82.47
2024-02-10T19:57:41.587Z,82.04
2024-02-10T20:00:14.218Z,82.54
2024-02-10T20:02:43.828Z,81.91
2024-02-10T20:05:11.379Z,82.60
2024-02-10T20:07:39.253Z,81.83
2024-02-10T20:10:06.527Z,82.05
2024-02-10T20:12:33.194Z,82.28
2024-02-10T20:15:01.066Z,82.73
2024-02-10T20:17:32.088Z,82.48
2024-02-10T20:20:07.997Z,82.13
2024-02-10T20:22:35.211Z,82.75
2024-02-10T20:25:04.525Z,82.69
2024-02-10T20:27:32.538Z,82.72
2024-02-10T20:30:00.356Z,82.25
2024-02-10T20:32:27.285Z,82.14
2024-02-10T20:34:53.956Z,82.37
2024-02-10T20:37:20.618Z,82.09
2024-02-10T20:39:49.795Z,82.69
2024-02-10T20:42:18.380Z,82.60
2024-02-10T20:44:48.297Z,82.42
2024-02-10T20:47:15.455Z,82.44
2024-02-10T20:49:42.251Z,83.35
2024-02-10T20:52:09.007Z,82.31
2024-02-10T20:54:36.692Z,83.00
2024-02-10T20:57:03.606Z,82.66
2024-02-10T20:59:30.327Z,82.24
2024-02-10T21:01:57.612Z,82.90
2024-02-10T21:04:24.498Z,82.44
2024-02-10T21:06:54.087Z,82.31
2024-02-10T21:09:26.724Z,82.40
2024-02-10T21:11:53.411Z,82.86
2024-02-10T21:14:20.411Z,82.87
2024-02-10T21:16:48.685Z,82.97
2024-02-10T21:19:15.742Z,82.40
2024-02-10T21:21:42.915Z,82.74
2024-02-10T21:24:10.049Z,82.37
2024-02-10T21:26:37.834Z,82.78
2024-02-10T21:29:09.154Z,82.80
2024-02-10T21:31:37.127Z,82.53
2024-02-10T21:34:05.899Z,82.44
2024-02-10T21:36:36.292Z,82.73
2024-02-10T21:39:22.286Z,82.63
2024-02-10T21:41:49.026Z,81.96
2024-02-10T21:44:16.193Z,82.02
2024-02-10T21:46:43.264Z,82.11
2024-02-10T21:49:10.008Z,82.17
2024-02-10T21:51:38.155Z,82.26
2024-02-10T21:54:07.166Z,82.38
2024-02-10T21:56:41.696Z,82.52
2024-02-10T21:59:10.494Z,82.13
2024-02-10T22:01:37.236Z,82.65
2024-02-10T22:04:05.340Z,82.16
2024-02-10T22:06:32.101Z,82.44
2024-02-10T22:08:59.330Z,82.42
2024-02-10T22:11:26.400Z,82.01
2024-02-10T22:13:53.120Z,82.20
2024-02-10T22:16:19.915Z,82.54
2024-02-10T22:18:49.903Z,82.79
2024-02-10T22:21:17.050Z,81.98
2024-02-10T22:23:43.656Z,82.57
2024-02-10T22:26:10.360Z,82.39
2024-02-10T22:28:41.498Z,82.06
2024-02-10T22:31:09.929Z,82.55
2024-02-10T22:33:37.322Z,82.76
2024-02-10T22:36:11.349Z,82.50
2024-02-10T22:38:41.272Z,82.77
2024-02-10T22:41:08.344Z,82.74
2024-02-10T22:43:35.084Z,82.57
2024-02-10T22:46:06.693Z,82.88
2024-02-10T22:48:35.547Z,82.32
2024-02-10T22:51:04.358Z,82.86
2024-02-10T22:53:34.190Z,82.75
2024-02-10T22:56:00.888Z,83.06
2024-02-10T22:58:27.607Z,82.33
2024-02-10T23:00:54.605Z,82.43
2024-02-10T23:03:21.493Z,82.59
2024-02-10T23:05:51.592Z,82.52
2024-02-10T23:08:21.047Z,82.22
2024-02-10T23:10:48.593Z,82.44
2024-02-10T23:13:20.909Z,82.83
2024-02-10T23:15:52.472Z,83.16
2024-02-10T23:18:24.913Z,83.29
2024-02-10T23:20:52.758Z,82.83
2024-02-10T23:23:22.096Z,83.29
2024-02-10T23:25:50.526Z,83.04
2024-02-10T23:28:17.881Z,82.77
2024-02-10T23:30:52.504Z,82.41
2024-02-10T23:35:57.599Z,83.18
2024-02-10T23:38:28.003Z,83.39
2024-02-10T23:40:56.645Z,82.96
2024-02-10T23:43:24.847Z,83.38
2024-02-10T23:45:51.970Z,83.38
2024-02-10T23:48:20.899Z,83.08
2024-02-10T23:50:48.239Z,82.92
2024-02-10T23:53:15.474Z,83.46
2024-02-10T23:55:44.436Z,83.22
2024-02-10T23:58:12.880Z,82.89
